sensor_id;sensor_type;location;lat;lon;timestamp;pressure;altitude;pressure_sealevel;temperature;humidity
42247;BME280;27913;42.722;23.268;2023-04-28T00:03:23;95066.97;;;4.57;58.23
42247;BME280;27913;42.722;23.268;2023-04-28T00:05:51;94998.63;;;4.08;58.33
42247;BME280;27913;42.722;23.268;2023-04-28T00:08:17;95055.03;;;4.36;58.35
42247;BME280;27913;42.722;23.268;2023-04-28T00:10:42;94911.97;;;3.52;58.55
42247;BME280;27913;42.722;23.268;2023-04-28T00:13:08;95082.22;;;4.52;58.80
42247;BME280;27913;42.722;23.268;2023-04-28T00:15:33;95053.09;;;4.20;59.34
42247;BME280;27913;42.722;23.268;2023-04-28T00:17:59;95259.84;;;5.40;59.43
42247;BME280;27913;42.722;23.268;2023-04-28T00:20:24;95252.16;;;5.38;59.63
42247;BME280;27913;42.722;23.268;2023-04-28T00:22:50;95251.78;;;5.33;59.62
42247;BME280;27913;42.722;23.268;2023-04-28T00:25:15;95205.06;;;5.03;60.14
42247;BME280;27913;42.722;23.268;2023-04-28T00:27:41;95258.41;;;5.27;60.28
42247;BME280;27913;42.722;23.268;2023-04-28T00:30:08;95248.56;;;5.21;60.30
42247;BME280;27913;42.722;23.268;2023-04-28T00:32:33;95260.41;;;5.15;60.70
42247;BME280;27913;42.722;23.268;2023-04-28T00:34:59;94973.47;;;3.43;60.60
42247;BME280;27913;42.722;23.268;2023-04-28T00:37:24;95084.66;;;4.07;60.60
42247;BME280;27913;42.722;23.268;2023-04-28T00:39:54;95266.06;;;5.11;61.37
42247;BME280;27913;42.722;23.268;2023-04-28T00:42:20;95258.03;;;5.04;61.21
42247;BME280;27913;42.722;23.268;2023-04-28T00:44:46;95264.31;;;5.01;61.12
42247;BME280;27913;42.722;23.268;2023-04-28T00:47:11;95269.00;;;4.98;61.43
42247;BME280;27913;42.722;23.268;2023-04-28T00:49:37;95095.53;;;3.92;61.70
42247;BME280;27913;42.722;23.268;2023-04-28T00:52:06;95011.56;;;3.24;61.86
42247;BME280;27913;42.722;23.268;2023-04-28T00:54:32;95270.84;;;4.87;61.92
42247;BME280;27913;42.722;23.268;2023-04-28T00:56:59;95165.31;;;4.17;62.09
42247;BME280;27913;42.722;23.268;2023-04-28T00:59:28;95272.13;;;4.83;62.56
42247;BME280;27913;42.722;23.268;2023-04-28T01:01:53;95275.00;;;4.80;62.65
42247;BME280;27913;42.722;23.268;2023-04-28T01:04:19;95277.44;;;4.81;62.60
42247;BME280;27913;42.722;23.268;2023-04-28T01:06:46;95201.53;;;4.38;62.66
42247;BME280;27913;42.722;23.268;2023-04-28T01:09:12;95279.78;;;4.85;62.23
42247;BME280;27913;42.722;23.268;2023-04-28T01:11:37;95225.06;;;4.46;62.54
42247;BME280;27913;42.722;23.268;2023-04-28T01:14:03;95285.28;;;4.81;62.35
42247;BME280;27913;42.722;23.268;2023-04-28T01:16:29;95287.88;;;4.81;62.57
42247;BME280;27913;42.722;23.268;2023-04-28T01:18:57;95282.66;;;4.81;62.58
42247;BME280;27913;42.722;23.268;2023-04-28T01:21:27;95093.44;;;3.68;62.48
42247;BME280;27913;42.722;23.268;2023-04-28T01:23:57;94972.81;;;2.93;62.14
42247;BME280;27913;42.722;23.268;2023-04-28T01:26:23;95277.19;;;4.85;62.12
42247;BME280;27913;42.722;23.268;2023-04-28T01:28:49;95090.16;;;3.66;61.71
42247;BME280;27913;42.722;23.268;2023-04-28T01:31:15;95214.50;;;4.48;62.02
42247;BME280;27913;42.722;23.268;2023-04-28T01:33:40;95223.50;;;4.35;62.12
42247;BME280;27913;42.722;23.268;2023-04-28T01:36:06;95147.56;;;4.02;61.65
42247;BME280;27913;42.722;23.268;2023-04-28T01:38:32;95280.06;;;4.81;61.63
42247;BME280;27913;42.722;23.268;2023-04-28T01:40:58;95158.25;;;3.99;61.67
42247;BME280;27913;42.722;23.268;2023-04-28T01:43:24;95265.59;;;4.69;61.92
42247;BME280;27913;42.722;23.268;2023-04-28T01:45:49;95286.44;;;4.69;62.07
42247;BME280;27913;42.722;23.268;2023-04-28T01:48:15;95274.94;;;4.62;62.04
42247;BME280;27913;42.722;23.268;2023-04-28T01:50:41;95109.75;;;3.50;62.19
42247;BME280;27913;42.722;23.268;2023-04-28T01:53:06;95288.25;;;4.58;61.88
42247;BME280;27913;42.722;23.268;2023-04-28T01:55:33;95206.84;;;4.08;62.09
42247;BME280;27913;42.722;23.268;2023-04-28T01:57:58;95283.06;;;4.49;61.87
42247;BME280;27913;42.722;23.268;2023-04-28T02:00:24;95283.75;;;4.51;62.03
42247;BME280;27913;42.722;23.268;2023-04-28T02:02:49;95274.56;;;4.46;62.50
42247;BME280;27913;42.722;23.268;2023-04-28T02:05:15;95283.34;;;4.45;62.36
42247;BME280;27913;42.722;23.268;2023-04-28T02:07:40;95296.38;;;4.45;62.28
42247;BME280;27913;42.722;23.268;2023-04-28T02:10:07;95183.09;;;3.73;62.36
42247;BME280;27913;42.722;23.268;2023-04-28T02:12:32;95287.06;;;4.43;62.30
42247;BME280;27913;42.722;23.268;2023-04-28T02:14:58;95299.66;;;4.38;62.66
42247;BME280;27913;42.722;23.268;2023-04-28T02:17:23;95122.09;;;3.38;62.43
42247;BME280;27913;42.722;23.268;2023-04-28T02:19:56;95196.94;;;3.74;62.86
42247;BME280;27913;42.722;23.268;2023-04-28T02:22:22;95304.78;;;4.39;62.77
42247;BME280;27913;42.722;23.268;2023-04-28T02:24:47;95300.50;;;4.38;62.84
42247;BME280;27913;42.722;23.268;2023-04-28T02:27:13;95297.75;;;4.40;62.92
42247;BME280;27913;42.722;23.268;2023-04-28T02:29:39;94995.41;;;2.42;62.51
42247;BME280;27913;42.722;23.268;2023-04-28T02:32:04;95148.38;;;3.55;62.54
42247;BME280;27913;42.722;23.268;2023-04-28T02:34:30;95155.88;;;3.48;63.04
42247;BME280;27913;42.722;23.268;2023-04-28T02:36:55;95301.75;;;4.34;63.12
42247;BME280;27913;42.722;23.268;2023-04-28T02:39:21;95297.50;;;4.33;63.29
42247;BME280;27913;42.722;23.268;2023-04-28T02:41:50;95175.03;;;3.57;63.10
42247;BME280;27913;42.722;23.268;2023-04-28T02:44:16;95302.84;;;4.31;63.25
42247;BME280;27913;42.722;23.268;2023-04-28T02:46:42;95225.00;;;3.80;62.83
42247;BME280;27913;42.722;23.268;2023-04-28T02:49:07;95308.47;;;4.37;63.29
42247;BME280;27913;42.722;23.268;2023-04-28T02:51:33;95298.19;;;4.35;63.35
42247;BME280;27913;42.722;23.268;2023-04-28T02:53:58;95316.28;;;4.37;63.24
42247;BME280;27913;42.722;23.268;2023-04-28T02:56:24;95197.75;;;3.74;62.75
42247;BME280;27913;42.722;23.268;2023-04-28T02:58:49;95329.16;;;4.38;62.92
42247;BME280;27913;42.722;23.268;2023-04-28T03:01:15;95250.44;;;3.96;62.94
42247;BME280;27913;42.722;23.268;2023-04-28T03:03:40;95323.91;;;4.48;62.68
42247;BME280;27913;42.722;23.268;2023-04-28T03:06:06;95262.06;;;4.12;62.39
42247;BME280;27913;42.722;23.268;2023-04-28T03:08:31;95326.25;;;4.51;62.25
42247;BME280;27913;42.722;23.268;2023-04-28T03:10:57;95140.16;;;3.40;61.81
42247;BME280;27913;42.722;23.268;2023-04-28T03:13:22;95124.44;;;3.31;61.65
42247;BME280;27913;42.722;23.268;2023-04-28T03:15:48;95326.41;;;4.50;61.46
42247;BME280;27913;42.722;23.268;2023-04-28T03:18:14;95229.38;;;3.90;61.11
42247;BME280;27913;42.722;23.268;2023-04-28T03:20:40;95202.69;;;3.68;61.08
42247;BME280;27913;42.722;23.268;2023-04-28T03:23:06;95145.38;;;3.30;61.25
42247;BME280;27913;42.722;23.268;2023-04-28T03:25:32;95271.38;;;4.05;61.15
42247;BME280;27913;42.722;23.268;2023-04-28T03:27:57;95350.09;;;4.56;60.56
42247;BME280;27913;42.722;23.268;2023-04-28T03:30:23;95355.84;;;4.50;61.04
42247;BME280;27913;42.722;23.268;2023-04-28T03:32:48;95355.44;;;4.55;60.78
42247;BME280;27913;42.722;23.268;2023-04-28T03:35:14;95283.56;;;4.04;60.83
42247;BME280;27913;42.722;23.268;2023-04-28T03:37:39;95357.22;;;4.54;60.68
42247;BME280;27913;42.722;23.268;2023-04-28T03:40:05;95055.53;;;2.58;60.67
42247;BME280;27913;42.722;23.268;2023-04-28T03:42:31;95254.72;;;3.78;60.77
42247;BME280;27913;42.722;23.268;2023-04-28T03:44:56;95069.78;;;2.63;60.45
42247;BME280;27913;42.722;23.268;2023-04-28T03:47:22;95362.31;;;4.46;60.72
42247;BME280;27913;42.722;23.268;2023-04-28T03:49:48;95379.44;;;4.49;60.75
42247;BME280;27913;42.722;23.268;2023-04-28T03:52:13;95262.94;;;3.83;60.55
42247;BME280;27913;42.722;23.268;2023-04-28T03:54:39;95133.34;;;2.99;60.19
42247;BME280;27913;42.722;23.268;2023-04-28T03:57:05;95387.09;;;4.50;60.04
42247;BME280;27913;42.722;23.268;2023-04-28T03:59:31;95387.94;;;4.51;60.30
42247;BME280;27913;42.722;23.268;2023-04-28T04:01:56;95130.06;;;2.97;59.94
42247;BME280;27913;42.722;23.268;2023-04-28T04:04:22;95077.16;;;2.68;59.92
42247;BME280;27913;42.722;23.268;2023-04-28T04:06:47;95388.06;;;4.59;59.59
42247;BME280;27913;42.722;23.268;2023-04-28T04:09:13;95382.03;;;4.49;59.82
42247;BME280;27913;42.722;23.268;2023-04-28T04:11:39;95389.97;;;4.57;59.64
42247;BME280;27913;42.722;23.268;2023-04-28T04:14:05;95403.00;;;4.57;59.57
42247;BME280;27913;42.722;23.268;2023-04-28T04:16:30;95162.22;;;3.16;59.64
42247;BME280;27913;42.722;23.268;2023-04-28T04:18:56;95400.94;;;4.61;59.64
42247;BME280;27913;42.722;23.268;2023-04-28T04:21:21;95352.63;;;4.28;59.75
42247;BME280;27913;42.722;23.268;2023-04-28T04:23:48;95348.50;;;4.26;59.68
42247;BME280;27913;42.722;23.268;2023-04-28T04:26:14;95417.53;;;4.59;59.63
42247;BME280;27913;42.722;23.268;2023-04-28T04:28:39;95349.19;;;4.18;59.75
42247;BME280;27913;42.722;23.268;2023-04-28T04:31:05;95377.94;;;4.36;59.73
42247;BME280;27913;42.722;23.268;2023-04-28T04:33:30;95413.81;;;4.62;59.91
42247;BME280;27913;42.722;23.268;2023-04-28T04:35:57;95383.28;;;4.34;60.12
42247;BME280;27913;42.722;23.268;2023-04-28T04:38:23;95424.13;;;4.64;59.87
42247;BME280;27913;42.722;23.268;2023-04-28T04:40:49;95422.63;;;4.61;60.24
42247;BME280;27913;42.722;23.268;2023-04-28T04:43:14;95327.16;;;4.02;60.34
42247;BME280;27913;42.722;23.268;2023-04-28T04:45:41;95431.66;;;4.67;60.67
42247;BME280;27913;42.722;23.268;2023-04-28T04:48:06;95436.31;;;4.73;60.31
42247;BME280;27913;42.722;23.268;2023-04-28T04:50:32;95281.81;;;3.95;60.63
42247;BME280;27913;42.722;23.268;2023-04-28T04:52:57;95442.47;;;4.92;60.38
42247;BME280;27913;42.722;23.268;2023-04-28T04:55:23;95432.44;;;4.97;60.05
42247;BME280;27913;42.722;23.268;2023-04-28T04:57:50;95204.06;;;3.52;60.37
42247;BME280;27913;42.722;23.268;2023-04-28T05:10:40;95296.59;;;3.74;63.50
42247;BME280;27913;42.722;23.268;2023-04-28T05:13:05;95446.97;;;4.80;62.93
42247;BME280;27913;42.722;23.268;2023-04-28T05:15:31;95454.13;;;4.88;63.04
42247;BME280;27913;42.722;23.268;2023-04-28T05:17:56;95458.22;;;5.00;62.98
42247;BME280;27913;42.722;23.268;2023-04-28T05:20:22;95343.22;;;4.55;62.42
42247;BME280;27913;42.722;23.268;2023-04-28T05:22:48;95339.03;;;4.44;62.13
42247;BME280;27913;42.722;23.268;2023-04-28T05:25:13;95445.78;;;5.22;62.12
42247;BME280;27913;42.722;23.268;2023-04-28T05:27:39;95364.91;;;4.94;61.95
42247;BME280;27913;42.722;23.268;2023-04-28T05:30:08;95446.56;;;5.42;61.39
42247;BME280;27913;42.722;23.268;2023-04-28T05:32:35;95298.00;;;4.56;60.59
42247;BME280;27913;42.722;23.268;2023-04-28T05:35:01;95453.78;;;5.49;60.48
42247;BME280;27913;42.722;23.268;2023-04-28T05:37:26;95154.06;;;3.78;60.29
42247;BME280;27913;42.722;23.268;2023-04-28T05:39:52;95368.69;;;5.10;59.98
42247;BME280;27913;42.722;23.268;2023-04-28T05:42:17;95358.66;;;5.15;60.36
42247;BME280;27913;42.722;23.268;2023-04-28T05:44:43;95447.25;;;5.73;59.98
42247;BME280;27913;42.722;23.268;2023-04-28T05:47:08;95111.63;;;3.68;59.63
42247;BME280;27913;42.722;23.268;2023-04-28T05:49:34;95175.31;;;4.21;59.68
42247;BME280;27913;42.722;23.268;2023-04-28T05:52:00;95447.88;;;5.85;59.01
42247;BME280;27913;42.722;23.268;2023-04-28T05:54:25;95453.03;;;5.66;59.86
42247;BME280;27913;42.722;23.268;2023-04-28T05:56:52;95450.09;;;5.79;60.14
42247;BME280;27913;42.722;23.268;2023-04-28T05:59:17;95452.25;;;5.84;57.64
42247;BME280;27913;42.722;23.268;2023-04-28T06:01:43;95445.66;;;5.80;58.23
42247;BME280;27913;42.722;23.268;2023-04-28T06:04:09;95438.91;;;5.87;58.41
42247;BME280;27913;42.722;23.268;2023-04-28T06:06:34;95242.28;;;4.67;58.00
42247;BME280;27913;42.722;23.268;2023-04-28T06:09:01;95449.41;;;5.77;57.57
42247;BME280;27913;42.722;23.268;2023-04-28T06:11:27;95085.22;;;3.62;58.38
42247;BME280;27913;42.722;23.268;2023-04-28T06:13:52;95117.31;;;3.91;57.99
42247;BME280;27913;42.722;23.268;2023-04-28T06:16:18;95454.91;;;6.02;58.04
42247;BME280;27913;42.722;23.268;2023-04-28T06:18:43;95444.88;;;6.08;57.51
42247;BME280;27913;42.722;23.268;2023-04-28T06:21:09;95453.31;;;6.20;58.07
42247;BME280;27913;42.722;23.268;2023-04-28T06:23:35;95327.09;;;5.46;56.84
42247;BME280;27913;42.722;23.268;2023-04-28T06:26:01;95223.03;;;4.78;57.07
42247;BME280;27913;42.722;23.268;2023-04-28T06:28:27;95443.22;;;6.25;56.45
42247;BME280;27913;42.722;23.268;2023-04-28T06:30:52;95441.72;;;6.40;57.18
42247;BME280;27913;42.722;23.268;2023-04-28T06:33:18;95322.19;;;5.79;57.14
42247;BME280;27913;42.722;23.268;2023-04-28T06:35:43;95460.25;;;6.47;57.40
42247;BME280;27913;42.722;23.268;2023-04-28T06:38:09;95454.44;;;6.54;56.94
42247;BME280;27913;42.722;23.268;2023-04-28T06:40:34;95451.88;;;6.62;55.22
42247;BME280;27913;42.722;23.268;2023-04-28T06:43:00;95455.28;;;6.62;55.04
42247;BME280;27913;42.722;23.268;2023-04-28T06:45:27;95402.84;;;6.37;55.41
42247;BME280;27913;42.722;23.268;2023-04-28T06:47:52;95181.13;;;5.08;54.97
42247;BME280;27913;42.722;23.268;2023-04-28T06:50:20;95449.31;;;6.70;55.55
42247;BME280;27913;42.722;23.268;2023-04-28T06:52:46;95134.00;;;4.83;54.12
42247;BME280;27913;42.722;23.268;2023-04-28T06:55:14;95323.31;;;6.13;51.96
42247;BME280;27913;42.722;23.268;2023-04-28T06:57:40;95456.84;;;6.92;52.63
42247;BME280;27913;42.722;23.268;2023-04-28T07:00:07;95367.53;;;6.51;53.14
42247;BME280;27913;42.722;23.268;2023-04-28T07:02:33;95184.88;;;5.42;51.86
42247;BME280;27913;42.722;23.268;2023-04-28T07:04:59;95319.94;;;6.39;52.59
42247;BME280;27913;42.722;23.268;2023-04-28T07:07:24;95173.22;;;5.54;52.19
42247;BME280;27913;42.722;23.268;2023-04-28T07:09:50;95114.91;;;5.19;51.96
42247;BME280;27913;42.722;23.268;2023-04-28T07:12:17;95447.25;;;7.27;51.58
42247;BME280;27913;42.722;23.268;2023-04-28T07:14:43;95437.66;;;7.36;50.63
42247;BME280;27913;42.722;23.268;2023-04-28T07:17:08;95455.66;;;7.39;50.16
42247;BME280;27913;42.722;23.268;2023-04-28T07:19:34;95284.06;;;6.50;49.09
42247;BME280;27913;42.722;23.268;2023-04-28T07:21:59;95293.06;;;6.56;47.55
42247;BME280;27913;42.722;23.268;2023-04-28T07:24:25;95324.25;;;6.84;46.70
42247;BME280;27913;42.722;23.268;2023-04-28T07:26:51;95124.78;;;5.52;46.56
42247;BME280;27913;42.722;23.268;2023-04-28T07:29:17;95424.78;;;7.51;44.91
42247;BME280;27913;42.722;23.268;2023-04-28T07:31:42;95436.78;;;7.62;45.10
42247;BME280;27913;42.722;23.268;2023-04-28T07:34:08;95442.34;;;7.59;45.24
42247;BME280;27913;42.722;23.268;2023-04-28T07:36:33;95172.91;;;6.02;44.58
42247;BME280;27913;42.722;23.268;2023-04-28T07:38:59;95448.63;;;7.75;45.47
42247;BME280;27913;42.722;23.268;2023-04-28T07:41:26;95365.34;;;7.35;46.15
42247;BME280;27913;42.722;23.268;2023-04-28T07:43:52;95174.19;;;6.25;45.82
42247;BME280;27913;42.722;23.268;2023-04-28T07:46:17;95403.44;;;7.72;46.19
42247;BME280;27913;42.722;23.268;2023-04-28T07:48:43;95436.88;;;7.87;44.77
42247;BME280;27913;42.722;23.268;2023-04-28T07:51:09;95432.59;;;7.86;45.45
42247;BME280;27913;42.722;23.268;2023-04-28T07:53:35;95429.34;;;7.92;45.77
42247;BME280;27913;42.722;23.268;2023-04-28T07:56:00;95418.22;;;7.98;45.55
42247;BME280;27913;42.722;23.268;2023-04-28T07:58:26;95428.56;;;8.08;45.14
42247;BME280;27913;42.722;23.268;2023-04-28T08:00:52;95131.75;;;6.23;44.63
42247;BME280;27913;42.722;23.268;2023-04-28T08:03:17;95427.09;;;8.22;44.65
42247;BME280;27913;42.722;23.268;2023-04-28T08:05:42;95431.03;;;8.18;43.67
42247;BME280;27913;42.722;23.268;2023-04-28T08:08:09;95301.78;;;7.51;44.20
42247;BME280;27913;42.722;23.268;2023-04-28T08:10:35;95186.00;;;6.72;43.81
42247;BME280;27913;42.722;23.268;2023-04-28T08:13:02;95109.41;;;6.28;43.64
42247;BME280;27913;42.722;23.268;2023-04-28T08:15:28;95429.09;;;8.29;44.35
42247;BME280;27913;42.722;23.268;2023-04-28T08:17:53;95420.44;;;8.45;43.83
42247;BME280;27913;42.722;23.268;2023-04-28T08:20:19;95426.50;;;8.54;43.49
42247;BME280;27913;42.722;23.268;2023-04-28T08:22:45;95428.28;;;8.53;43.42
42247;BME280;27913;42.722;23.268;2023-04-28T08:25:11;95424.88;;;8.61;42.92
42247;BME280;27913;42.722;23.268;2023-04-28T08:27:36;95413.25;;;8.64;42.96
42247;BME280;27913;42.722;23.268;2023-04-28T08:30:06;95354.91;;;8.20;42.46
42247;BME280;27913;42.722;23.268;2023-04-28T08:32:32;95426.50;;;8.70;42.36
42247;BME280;27913;42.722;23.268;2023-04-28T08:34:57;95232.94;;;7.59;42.09
42247;BME280;27913;42.722;23.268;2023-04-28T08:37:23;95155.88;;;7.20;41.42
42247;BME280;27913;42.722;23.268;2023-04-28T08:39:49;95198.88;;;7.51;41.28
42247;BME280;27913;42.722;23.268;2023-04-28T08:42:15;95417.66;;;8.88;41.18
42247;BME280;27913;42.722;23.268;2023-04-28T08:44:41;95417.78;;;9.03;41.52
42247;BME280;27913;42.722;23.268;2023-04-28T08:47:13;95410.38;;;9.24;43.01
42247;BME280;27913;42.722;23.268;2023-04-28T08:49:39;95399.97;;;9.39;40.91
42247;BME280;27913;42.722;23.268;2023-04-28T08:52:11;95092.59;;;7.49;40.74
42247;BME280;27913;42.722;23.268;2023-04-28T08:54:38;95121.00;;;7.61;40.31
42247;BME280;27913;42.722;23.268;2023-04-28T08:57:07;95412.84;;;9.09;40.40
42247;BME280;27913;42.722;23.268;2023-04-28T08:59:33;95411.88;;;9.10;40.08
42247;BME280;27913;42.722;23.268;2023-04-28T09:01:59;95270.03;;;8.29;40.94
42247;BME280;27913;42.722;23.268;2023-04-28T09:04:24;95401.31;;;9.26;40.21
42247;BME280;27913;42.722;23.268;2023-04-28T09:06:50;95319.81;;;8.79;40.48
42247;BME280;27913;42.722;23.268;2023-04-28T09:09:24;95343.22;;;8.81;40.18
42247;BME280;27913;42.722;23.268;2023-04-28T09:11:55;95394.41;;;9.34;41.16
42247;BME280;27913;42.722;23.268;2023-04-28T09:14:22;95318.09;;;9.03;40.93
42247;BME280;27913;42.722;23.268;2023-04-28T09:16:49;95306.75;;;9.11;40.01
42247;BME280;27913;42.722;23.268;2023-04-28T09:19:15;95302.78;;;9.15;39.22
42247;BME280;27913;42.722;23.268;2023-04-28T09:21:51;95122.38;;;8.14;38.98
42247;BME280;27913;42.722;23.268;2023-04-28T09:24:39;95318.25;;;9.42;40.21
42247;BME280;27913;42.722;23.268;2023-04-28T09:27:07;95389.94;;;9.83;39.29
42247;BME280;27913;42.722;23.268;2023-04-28T09:29:36;95388.97;;;9.75;40.59
42247;BME280;27913;42.722;23.268;2023-04-28T09:34:50;95371.34;;;9.61;39.83
42247;BME280;27913;42.722;23.268;2023-04-28T09:37:57;95145.53;;;8.42;40.23
42247;BME280;27913;42.722;23.268;2023-04-28T09:40:23;95255.41;;;9.17;39.80
42247;BME280;27913;42.722;23.268;2023-04-28T09:42:48;95349.16;;;9.95;39.90
42247;BME280;27913;42.722;23.268;2023-04-28T09:45:15;95238.72;;;9.33;39.86
42247;BME280;27913;42.722;23.268;2023-04-28T09:47:42;95213.06;;;9.20;39.62
42247;BME280;27913;42.722;23.268;2023-04-28T09:50:09;95196.50;;;9.20;39.09
42247;BME280;27913;42.722;23.268;2023-04-28T09:52:40;95078.31;;;8.57;38.50
42247;BME280;27913;42.722;23.268;2023-04-28T09:55:06;95351.34;;;10.30;38.17
42247;BME280;27913;42.722;23.268;2023-04-28T09:57:35;95345.44;;;10.28;38.09
42247;BME280;27913;42.722;23.268;2023-04-28T10:00:02;95341.91;;;10.21;38.17
42247;BME280;27913;42.722;23.268;2023-04-28T10:02:31;95336.16;;;10.41;37.89
42247;BME280;27913;42.722;23.268;2023-04-28T10:05:58;95147.94;;;9.24;36.77
42247;BME280;27913;42.722;23.268;2023-04-28T10:08:25;95242.63;;;9.93;36.86
42247;BME280;27913;42.722;23.268;2023-04-28T10:10:51;95137.16;;;9.18;35.75
42247;BME280;27913;42.722;23.268;2023-04-28T10:13:21;95284.31;;;10.11;36.42
42247;BME280;27913;42.722;23.268;2023-04-28T10:15:50;95235.13;;;9.81;35.32
42247;BME280;27913;42.722;23.268;2023-04-28T10:18:21;95129.66;;;9.07;36.28
42247;BME280;27913;42.722;23.268;2023-04-28T10:20:49;95262.81;;;9.92;36.61
42247;BME280;27913;42.722;23.268;2023-04-28T10:26:02;95325.38;;;10.74;36.03
42247;BME280;27913;42.722;23.268;2023-04-28T10:28:28;95330.91;;;10.79;36.77
42247;BME280;27913;42.722;23.268;2023-04-28T10:31:11;95300.69;;;10.90;37.16
42247;BME280;27913;42.722;23.268;2023-04-28T10:33:37;95180.13;;;10.18;35.92
42247;BME280;27913;42.722;23.268;2023-04-28T10:36:03;95231.84;;;10.56;35.45
42247;BME280;27913;42.722;23.268;2023-04-28T10:38:29;95142.19;;;9.82;34.78
42247;BME280;27913;42.722;23.268;2023-04-28T10:40:55;95116.22;;;9.49;35.32
42247;BME280;27913;42.722;23.268;2023-04-28T10:56:07;94995.38;;;9.27;35.16
42247;BME280;27913;42.722;23.268;2023-04-28T10:58:33;95269.56;;;11.09;34.94
42247;BME280;27913;42.722;23.268;2023-04-28T11:03:49;95266.25;;;11.37;34.62
42247;BME280;27913;42.722;23.268;2023-04-28T11:11:28;95190.41;;;11.10;35.23
42247;BME280;27913;42.722;23.268;2023-04-28T11:19:35;95178.19;;;11.40;34.88
42247;BME280;27913;42.722;23.268;2023-04-28T11:22:03;95250.66;;;11.79;35.48
42247;BME280;27913;42.722;23.268;2023-04-28T11:24:29;95241.50;;;11.97;34.71
42247;BME280;27913;42.722;23.268;2023-04-28T11:26:56;95250.16;;;12.13;34.45
42247;BME280;27913;42.722;23.268;2023-04-28T11:29:39;95235.91;;;12.29;34.72
42247;BME280;27913;42.722;23.268;2023-04-28T11:32:07;95241.25;;;12.42;35.00
42247;BME280;27913;42.722;23.268;2023-04-28T11:34:33;95174.38;;;12.22;34.10
42247;BME280;27913;42.722;23.268;2023-04-28T11:36:59;95172.09;;;12.40;34.74
42247;BME280;27913;42.722;23.268;2023-04-28T11:39:29;95217.09;;;12.74;34.00
42247;BME280;27913;42.722;23.268;2023-04-28T11:41:56;95167.09;;;12.24;34.20
42247;BME280;27913;42.722;23.268;2023-04-28T11:44:24;95209.28;;;12.52;33.71
42247;BME280;27913;42.722;23.268;2023-04-28T11:46:54;95230.88;;;12.70;33.95
42247;BME280;27913;42.722;23.268;2023-04-28T11:49:43;95221.41;;;12.82;33.78
42247;BME280;27913;42.722;23.268;2023-04-28T11:52:07;95124.97;;;12.37;33.38
42247;BME280;27913;42.722;23.268;2023-04-28T11:54:34;95205.81;;;12.94;33.04
42247;BME280;27913;42.722;23.268;2023-04-28T11:57:00;95211.78;;;13.16;33.58
42247;BME280;27913;42.722;23.268;2023-04-28T11:59:30;95073.94;;;12.52;33.04
42247;BME280;27913;42.722;23.268;2023-04-28T12:02:00;95156.19;;;13.32;32.51
42247;BME280;27913;42.722;23.268;2023-04-28T12:04:33;95143.41;;;13.35;32.49
42247;BME280;27913;42.722;23.268;2023-04-28T12:07:11;95212.56;;;13.66;33.11
42247;BME280;27913;42.722;23.268;2023-04-28T12:12:07;95202.94;;;13.51;33.22
42247;BME280;27913;42.722;23.268;2023-04-28T12:14:56;95161.06;;;13.35;32.71
42247;BME280;27913;42.722;23.268;2023-04-28T12:17:26;95190.00;;;13.70;32.82
42247;BME280;27913;42.722;23.268;2023-04-28T12:19:53;95188.56;;;13.81;32.45
42247;BME280;27913;42.722;23.268;2023-04-28T12:22:19;95190.00;;;13.84;32.07
42247;BME280;27913;42.722;23.268;2023-04-28T12:24:45;95184.91;;;14.09;31.54
42247;BME280;27913;42.722;23.268;2023-04-28T12:27:20;95189.56;;;14.34;30.67
42247;BME280;27913;42.722;23.268;2023-04-28T12:29:50;95137.94;;;13.91;32.05
42247;BME280;27913;42.722;23.268;2023-04-28T12:32:16;95028.97;;;13.01;31.97
42247;BME280;27913;42.722;23.268;2023-04-28T12:34:44;95180.66;;;13.95;32.33
42247;BME280;27913;42.722;23.268;2023-04-28T12:37:10;95053.38;;;13.37;31.93
42247;BME280;27913;42.722;23.268;2023-04-28T12:39:38;95054.41;;;13.76;31.56
42247;BME280;27913;42.722;23.268;2023-04-28T12:42:04;95060.41;;;14.18;31.75
42247;BME280;27913;42.722;23.268;2023-04-28T12:44:35;95159.00;;;15.12;31.00
42247;BME280;27913;42.722;23.268;2023-04-28T12:47:10;95165.84;;;15.26;31.13
42247;BME280;27913;42.722;23.268;2023-04-28T12:49:36;95160.47;;;15.40;30.38
42247;BME280;27913;42.722;23.268;2023-04-28T12:52:03;94968.44;;;14.27;29.83
42247;BME280;27913;42.722;23.268;2023-04-28T12:54:29;95052.81;;;14.88;30.22
42247;BME280;27913;42.722;23.268;2023-04-28T12:56:54;95133.09;;;15.53;30.38
42247;BME280;27913;42.722;23.268;2023-04-28T12:59:20;95128.00;;;15.51;29.62
42247;BME280;27913;42.722;23.268;2023-04-28T13:01:47;95138.22;;;15.73;29.49
42247;BME280;27913;42.722;23.268;2023-04-28T13:04:12;95150.88;;;15.71;29.88
42247;BME280;27913;42.722;23.268;2023-04-28T13:06:38;95131.50;;;15.96;29.53
42247;BME280;27913;42.722;23.268;2023-04-28T13:09:10;95131.38;;;16.35;29.43
42247;BME280;27913;42.722;23.268;2023-04-28T13:11:36;95140.22;;;16.48;29.17
42247;BME280;27913;42.722;23.268;2023-04-28T13:14:03;95069.69;;;16.21;28.82
42247;BME280;27913;42.722;23.268;2023-04-28T13:16:29;95025.50;;;15.45;28.86
42247;BME280;27913;42.722;23.268;2023-04-28T13:18:55;95116.53;;;16.27;28.74
42247;BME280;27913;42.722;23.268;2023-04-28T13:21:23;94958.97;;;15.53;28.85
42247;BME280;27913;42.722;23.268;2023-04-28T13:23:49;95116.44;;;16.90;28.62
42247;BME280;27913;42.722;23.268;2023-04-28T13:26:14;95122.13;;;16.94;28.01
42247;BME280;27913;42.722;23.268;2023-04-28T13:28:40;95133.91;;;17.17;28.14
42247;BME280;27913;42.722;23.268;2023-04-28T13:31:06;95050.19;;;16.65;27.14
42247;BME280;27913;42.722;23.268;2023-04-28T13:33:33;95007.94;;;16.45;27.10
42247;BME280;27913;42.722;23.268;2023-04-28T13:35:58;95030.06;;;16.57;26.58
42247;BME280;27913;42.722;23.268;2023-04-28T13:38:24;95113.97;;;17.26;27.10
42247;BME280;27913;42.722;23.268;2023-04-28T13:40:51;95122.53;;;17.41;26.89
42247;BME280;27913;42.722;23.268;2023-04-28T13:43:16;95118.97;;;17.59;26.56